Henry Post Army Air Field (Fort Sill)
KFSI : now visible

Airfield :











YOU CAN JOIN US ON...

 
LOGIN :

Register | Disclaimer

   EN    FR    IT 

 









Legend :    VFR   Marginal VFR   IFR   Intensive IFR   Very Intensive IFR
Visi :
Ceiling :
>= 8 km
>= 3000ft
5 to 8 km
1000 to 3000 ft
1500m to 5 km
500 to 1000 ft
800 to 1500m
200 to 500 ft
< 800m
< 200 ft
Symbols :   Thunderstorms  Fog  Heavy snow  Heavy precipitations  Wind > 20 kt






- Airport Elevation : 1189 ft


KFSI - Henry Post Army Air Field (Fort Sill)

CURRENT METAR :
  • 081956Z AUTO 22011G18KT 10SM CLR 20/11 A2970 RMK AO2 SLP055 T02040105

EXPIRED METARs :
  • 081856Z AUTO 22011KT 10SM FEW220 18/10 A2974 RMK AO2 SLP068 T01810100
  • 081756Z AUTO 21012KT 10SM OVC150 18/10 A2977 RMK AO2 SLP079 T01780097 10178 20071 58021

Expired Forecast.



MET'MAP, your aeronautical weather chart ! - Copyright ORBIFLY December 2007 - Disclaimer

ORBIFLY MET'MAP TEAM :

Programming & Development : Alexandra Zaïnal
Concept & original design : Baudouin d'Aumeries
Assistance for programming : Marc-Olivier Méhu
Technical & hardware support : Manuel Goepfert

Contact : metmap@orbifly.com




SOURCES & CREDITS :

   NOAA       Earth
Advisory